Terminal Aerodrome Forecast
Issued by NWS

Home | Current Version | Previous Version | Text Only | Print | Product List | Glossary On
Versions: 1 2 3 4 5 6 7 8 9 10 11 12 13 14
000
FTUS44 KEPZ 191721
TAFDMN
TAF
KDMN 191721Z 1918/2018 26014KT P6SM SCT040 BKN100
      TEMPO 1918/1921 BKN025
     FM192100 26015G25KT P6SM VCTS SCT060CB BKN110
      TEMPO 1921/1924 3SM TSRA BKN040CB
     FM200100 27009KT P6SM FEW050 BKN120
     FM201000 29008KT P6SM SKC=

USA.gov is the U.S. government's official web portal to all federal, state and local government web resources and services.